AFL706 USPP-USSS
Flight info
| Callsign | AFL706 |
|---|---|
| Flight time | 0h 42m |
| Altitude | 23000 |
| Route | DIDRO1G DIDRO T762 BIKMA BIKMA6Q |
| Aircraft | T134/M-SDFGHRUWY/A |
Departure
| Time | 2026-04-26 10:15 |
|---|---|
| Airport | Perm International Airport (USPP) |
Arrival
| Time | 2026-04-26 10:58 |
|---|---|
| Airport | Koltsovo Airport (USSS) |
| Time | Latitude | Longitude | Altitude | Speed | Heading |
|---|---|---|---|---|---|
| 2026-04-26 09:51 | 57.91909 | 56.02093 | 411 ft | 0 kts | 316° |
| 2026-04-26 10:04 | 57.91908 | 56.02093 | 411 ft | 0 kts | 316° |
| 2026-04-26 10:04 | 57.91906 | 56.02097 | 411 ft | 2 kts | 316° |
| 2026-04-26 10:04 | 57.91895 | 56.02116 | 411 ft | 2 kts | 316° |
| 2026-04-26 10:04 | 57.91884 | 56.02135 | 411 ft | 2 kts | 326° |
| 2026-04-26 10:05 | 57.91870 | 56.02144 | 411 ft | 2 kts | 355° |
| 2026-04-26 10:05 | 57.91855 | 56.02141 | 411 ft | 2 kts | 20° |
| 2026-04-26 10:05 | 57.91843 | 56.02128 | 411 ft | 0 kts | 42° |
| 2026-04-26 10:05 | 57.91839 | 56.02119 | 411 ft | 1 kts | 46° |
| 2026-04-26 10:06 | 57.91838 | 56.02118 | 411 ft | 0 kts | 46° |
| 2026-04-26 10:09 | 57.91859 | 56.02160 | 411 ft | 6 kts | 46° |
| 2026-04-26 10:09 | 57.91890 | 56.02221 | 411 ft | 6 kts | 46° |
| 2026-04-26 10:09 | 57.91923 | 56.02285 | 411 ft | 6 kts | 46° |
| 2026-04-26 10:10 | 57.91970 | 56.02372 | 411 ft | 13 kts | 45° |
| 2026-04-26 10:10 | 57.92039 | 56.02506 | 411 ft | 16 kts | 45° |
| 2026-04-26 10:10 | 57.92131 | 56.02682 | 411 ft | 19 kts | 45° |
| 2026-04-26 10:10 | 57.92229 | 56.02872 | 411 ft | 22 kts | 46° |
| 2026-04-26 10:11 | 57.92337 | 56.03081 | 411 ft | 21 kts | 45° |
| 2026-04-26 10:11 | 57.92425 | 56.03248 | 411 ft | 8 kts | 45° |
| 2026-04-26 10:11 | 57.92476 | 56.03344 | 411 ft | 12 kts | 47° |
| 2026-04-26 10:11 | 57.92547 | 56.03488 | 411 ft | 14 kts | 47° |
| 2026-04-26 10:12 | 57.92594 | 56.03585 | 411 ft | 8 kts | 47° |
| 2026-04-26 10:12 | 57.92630 | 56.03670 | 411 ft | 7 kts | 79° |
| 2026-04-26 10:12 | 57.92619 | 56.03741 | 411 ft | 0 kts | 131° |
| 2026-04-26 10:13 | 57.92614 | 56.03752 | 411 ft | 4 kts | 133° |
| 2026-04-26 10:13 | 57.92593 | 56.03794 | 411 ft | 5 kts | 133° |
| 2026-04-26 10:13 | 57.92543 | 56.03892 | 411 ft | 14 kts | 136° |
| 2026-04-26 10:14 | 57.92475 | 56.04005 | 411 ft | 6 kts | 139° |
| 2026-04-26 10:14 | 57.92426 | 56.04024 | 411 ft | 11 kts | 214° |
| 2026-04-26 10:14 | 57.92395 | 56.03969 | 411 ft | 0 kts | 229° |
| 2026-04-26 10:14 | 57.92363 | 56.03901 | 411 ft | 30 kts | 227° |
| 2026-04-26 10:15 | 57.92047 | 56.03291 | 411 ft | 97 kts | 226° |
| 2026-04-26 10:15 | 57.91439 | 56.02114 | 421 ft | 150 kts | 227° |
| 2026-04-26 10:15 | 57.90648 | 56.00594 | 702 ft | 172 kts | 226° |
| 2026-04-26 10:15 | 57.89744 | 55.98885 | 1060 ft | 198 kts | 227° |
| 2026-04-26 10:16 | 57.88731 | 55.96860 | 1505 ft | 223 kts | 227° |
| 2026-04-26 10:16 | 57.87635 | 55.94706 | 2201 ft | 233 kts | 232° |
| 2026-04-26 10:16 | 57.86933 | 55.92246 | 2949 ft | 210 kts | 258° |
| 2026-04-26 10:16 | 57.86965 | 55.89500 | 3487 ft | 212 kts | 287° |
| 2026-04-26 10:17 | 57.87718 | 55.87190 | 4090 ft | 212 kts | 313° |
| 2026-04-26 10:17 | 57.89008 | 55.85729 | 4399 ft | 226 kts | 338° |
| 2026-04-26 10:17 | 57.90614 | 55.85465 | 4731 ft | 242 kts | 14° |
| 2026-04-26 10:17 | 57.92102 | 55.87146 | 4945 ft | 261 kts | 48° |
| 2026-04-26 10:18 | 57.92857 | 55.90234 | 5514 ft | 257 kts | 83° |
| 2026-04-26 10:18 | 57.92784 | 55.93523 | 6066 ft | 254 kts | 97° |
| 2026-04-26 10:18 | 57.92688 | 55.94785 | 6065 ft | 262 kts | 100° |
| 2026-04-26 10:18 | 57.92762 | 55.97515 | 6044 ft | 274 kts | 80° |
| 2026-04-26 10:19 | 57.93155 | 56.00991 | 6692 ft | 268 kts | 75° |
| 2026-04-26 10:19 | 57.93586 | 56.04383 | 7193 ft | 272 kts | 80° |
| 2026-04-26 10:19 | 57.93721 | 56.08039 | 7560 ft | 280 kts | 86° |
| 2026-04-26 10:19 | 57.93802 | 56.11589 | 8420 ft | 270 kts | 91° |
| 2026-04-26 10:20 | 57.93593 | 56.15236 | 8800 ft | 290 kts | 99° |
| 2026-04-26 10:20 | 57.93393 | 56.17760 | 9154 ft | 297 kts | 99° |
| 2026-04-26 10:20 | 57.93035 | 56.22873 | 9622 ft | 300 kts | 98° |
| 2026-04-26 10:20 | 57.92758 | 56.26765 | 9863 ft | 294 kts | 117° |
| 2026-04-26 10:21 | 57.92073 | 56.30365 | 10087 ft | 282 kts | 116° |
| 2026-04-26 10:21 | 57.91223 | 56.33460 | 10266 ft | 260 kts | 121° |
| 2026-04-26 10:21 | 57.90214 | 56.36085 | 10137 ft | 237 kts | 129° |
| 2026-04-26 10:21 | 57.89290 | 56.38583 | 10100 ft | 234 kts | 125° |
| 2026-04-26 10:22 | 57.88421 | 56.41222 | 10123 ft | 235 kts | 123° |
| 2026-04-26 10:22 | 57.87596 | 56.43857 | 10117 ft | 239 kts | 124° |
| 2026-04-26 10:22 | 57.86464 | 56.46242 | 9868 ft | 246 kts | 150° |
| 2026-04-26 10:22 | 57.85068 | 56.47872 | 10121 ft | 233 kts | 151° |
| 2026-04-26 10:23 | 57.83734 | 56.49570 | 10282 ft | 230 kts | 143° |
| 2026-04-26 10:23 | 57.82699 | 56.51941 | 10187 ft | 241 kts | 123° |
| 2026-04-26 10:23 | 57.81826 | 56.54714 | 10188 ft | 259 kts | 123° |
| 2026-04-26 10:23 | 57.80861 | 56.57682 | 10585 ft | 273 kts | 122° |
| 2026-04-26 10:24 | 57.80013 | 56.60973 | 10962 ft | 285 kts | 117° |
| 2026-04-26 10:24 | 57.79049 | 56.64232 | 11582 ft | 287 kts | 120° |
| 2026-04-26 10:24 | 57.78096 | 56.67630 | 11877 ft | 306 kts | 121° |
| 2026-04-26 10:24 | 57.77053 | 56.71111 | 12176 ft | 323 kts | 120° |
| 2026-04-26 10:25 | 57.76019 | 56.74869 | 12961 ft | 326 kts | 119° |
| 2026-04-26 10:25 | 57.74961 | 56.78668 | 13478 ft | 332 kts | 120° |
| 2026-04-26 10:25 | 57.73867 | 56.82571 | 13713 ft | 344 kts | 119° |
| 2026-04-26 10:25 | 57.72752 | 56.86606 | 14208 ft | 349 kts | 119° |
| 2026-04-26 10:26 | 57.71612 | 56.90671 | 14647 ft | 356 kts | 119° |
| 2026-04-26 10:26 | 57.70454 | 56.94807 | 15138 ft | 362 kts | 119° |
| 2026-04-26 10:26 | 57.69275 | 56.98992 | 15596 ft | 370 kts | 119° |
| 2026-04-26 10:26 | 57.68061 | 57.03284 | 16123 ft | 373 kts | 120° |
| 2026-04-26 10:27 | 57.66620 | 57.07335 | 16585 ft | 376 kts | 127° |
| 2026-04-26 10:27 | 57.65267 | 57.11522 | 17039 ft | 381 kts | 120° |
| 2026-04-26 10:27 | 57.63925 | 57.15854 | 17615 ft | 385 kts | 121° |
| 2026-04-26 10:27 | 57.62638 | 57.20228 | 18307 ft | 388 kts | 119° |
| 2026-04-26 10:28 | 57.61354 | 57.24613 | 19129 ft | 388 kts | 120° |
| 2026-04-26 10:28 | 57.60036 | 57.29091 | 19848 ft | 392 kts | 120° |
| 2026-04-26 10:28 | 57.58696 | 57.33590 | 19898 ft | 409 kts | 121° |
| 2026-04-26 10:28 | 57.57277 | 57.38129 | 20264 ft | 404 kts | 121° |
| 2026-04-26 10:29 | 57.55808 | 57.42725 | 20836 ft | 407 kts | 124° |
| 2026-04-26 10:29 | 57.54263 | 57.47131 | 21565 ft | 409 kts | 124° |
| 2026-04-26 10:29 | 57.52706 | 57.51617 | 22040 ft | 417 kts | 124° |
| 2026-04-26 10:29 | 57.51115 | 57.56180 | 21982 ft | 427 kts | 124° |
| 2026-04-26 10:30 | 57.49472 | 57.60871 | 21997 ft | 435 kts | 124° |
| 2026-04-26 10:30 | 57.47809 | 57.65610 | 22075 ft | 440 kts | 125° |
| 2026-04-26 10:30 | 57.46204 | 57.70477 | 22215 ft | 435 kts | 117° |
| 2026-04-26 10:30 | 57.45152 | 57.75769 | 22453 ft | 439 kts | 104° |
| 2026-04-26 10:31 | 57.44589 | 57.81413 | 22457 ft | 449 kts | 100° |
| 2026-04-26 10:31 | 57.43669 | 57.86928 | 21884 ft | 442 kts | 117° |
| 2026-04-26 10:31 | 57.42278 | 57.91830 | 22511 ft | 423 kts | 117° |
| 2026-04-26 10:31 | 57.41010 | 57.96664 | 22961 ft | 419 kts | 118° |
| 2026-04-26 10:32 | 57.39654 | 58.01597 | 22856 ft | 427 kts | 118° |
| 2026-04-26 10:32 | 57.38320 | 58.06465 | 22894 ft | 422 kts | 118° |
| 2026-04-26 10:32 | 57.36976 | 58.11357 | 22951 ft | 423 kts | 118° |
| 2026-04-26 10:32 | 57.35638 | 58.16219 | 22858 ft | 423 kts | 117° |
| 2026-04-26 10:33 | 57.34348 | 58.21035 | 22942 ft | 421 kts | 117° |
| 2026-04-26 10:33 | 57.33016 | 58.25915 | 22917 ft | 423 kts | 117° |
| 2026-04-26 10:33 | 57.31682 | 58.30800 | 22893 ft | 422 kts | 118° |
| 2026-04-26 10:33 | 57.30349 | 58.35650 | 22941 ft | 422 kts | 118° |
| 2026-04-26 10:34 | 57.29018 | 58.40482 | 22897 ft | 423 kts | 118° |
| 2026-04-26 10:34 | 57.27674 | 58.45355 | 22918 ft | 421 kts | 118° |
| 2026-04-26 10:34 | 57.26327 | 58.50226 | 22925 ft | 422 kts | 118° |
| 2026-04-26 10:34 | 57.24978 | 58.55094 | 22899 ft | 423 kts | 118° |
| 2026-04-26 10:35 | 57.23653 | 58.59865 | 22617 ft | 418 kts | 118° |
| 2026-04-26 10:35 | 57.22321 | 58.64648 | 21848 ft | 420 kts | 118° |
| 2026-04-26 10:35 | 57.20986 | 58.69442 | 21392 ft | 413 kts | 118° |
| 2026-04-26 10:35 | 57.19677 | 58.74122 | 20745 ft | 412 kts | 118° |
| 2026-04-26 10:36 | 57.18366 | 58.78806 | 20094 ft | 409 kts | 118° |
| 2026-04-26 10:36 | 57.17079 | 58.83387 | 19508 ft | 406 kts | 118° |
| 2026-04-26 10:36 | 57.15772 | 58.88041 | 18875 ft | 402 kts | 118° |
| 2026-04-26 10:36 | 57.14489 | 58.92597 | 18265 ft | 399 kts | 118° |
| 2026-04-26 10:37 | 57.13222 | 58.97085 | 17665 ft | 395 kts | 118° |
| 2026-04-26 10:37 | 57.11961 | 59.01543 | 17061 ft | 391 kts | 118° |
| 2026-04-26 10:37 | 57.10698 | 59.06005 | 16453 ft | 386 kts | 118° |
| 2026-04-26 10:37 | 57.09463 | 59.10357 | 15855 ft | 382 kts | 118° |
| 2026-04-26 10:38 | 57.08252 | 59.14613 | 15272 ft | 377 kts | 118° |
| 2026-04-26 10:38 | 57.06947 | 59.18809 | 14661 ft | 372 kts | 124° |
| 2026-04-26 10:38 | 57.05546 | 59.22733 | 14093 ft | 367 kts | 123° |
| 2026-04-26 10:38 | 57.04166 | 59.26592 | 13524 ft | 362 kts | 125° |
| 2026-04-26 10:39 | 57.02787 | 59.30400 | 12941 ft | 357 kts | 124° |
| 2026-04-26 10:39 | 57.01409 | 59.34192 | 12393 ft | 351 kts | 125° |
| 2026-04-26 10:39 | 57.00082 | 59.37851 | 11849 ft | 346 kts | 125° |
| 2026-04-26 10:39 | 56.98748 | 59.41514 | 11280 ft | 341 kts | 123° |
| 2026-04-26 10:40 | 56.97733 | 59.45420 | 10614 ft | 341 kts | 105° |
| 2026-04-26 10:40 | 56.97450 | 59.49647 | 10052 ft | 335 kts | 87° |
| 2026-04-26 10:40 | 56.97456 | 59.53872 | 9775 ft | 320 kts | 95° |
| 2026-04-26 10:40 | 56.97239 | 59.57748 | 9886 ft | 293 kts | 94° |
| 2026-04-26 10:41 | 56.97028 | 59.61351 | 9654 ft | 284 kts | 97° |
| 2026-04-26 10:41 | 56.96754 | 59.64961 | 9045 ft | 289 kts | 97° |
| 2026-04-26 10:41 | 56.96481 | 59.68646 | 8409 ft | 294 kts | 98° |
| 2026-04-26 10:41 | 56.96197 | 59.72373 | 7885 ft | 292 kts | 98° |
| 2026-04-26 10:42 | 56.95915 | 59.76016 | 7403 ft | 289 kts | 98° |
| 2026-04-26 10:42 | 56.95644 | 59.79682 | 6891 ft | 287 kts | 98° |
| 2026-04-26 10:42 | 56.95349 | 59.83257 | 6368 ft | 286 kts | 100° |
| 2026-04-26 10:42 | 56.95022 | 59.86807 | 6070 ft | 274 kts | 99° |
| 2026-04-26 10:43 | 56.94725 | 59.90134 | 6102 ft | 257 kts | 99° |
| 2026-04-26 10:43 | 56.94437 | 59.93364 | 5853 ft | 263 kts | 99° |
| 2026-04-26 10:43 | 56.94141 | 59.96780 | 5606 ft | 274 kts | 101° |
| 2026-04-26 10:43 | 56.93828 | 60.00181 | 5793 ft | 262 kts | 101° |
| 2026-04-26 10:44 | 56.93642 | 60.03498 | 5798 ft | 262 kts | 96° |
| 2026-04-26 10:44 | 56.93391 | 60.06873 | 5545 ft | 274 kts | 98° |
| 2026-04-26 10:44 | 56.93114 | 60.10407 | 5464 ft | 287 kts | 99° |
| 2026-04-26 10:44 | 56.92809 | 60.14137 | 5222 ft | 306 kts | 98° |
| 2026-04-26 10:45 | 56.92473 | 60.17986 | 5038 ft | 302 kts | 99° |
| 2026-04-26 10:45 | 56.92166 | 60.21791 | 4380 ft | 303 kts | 98° |
| 2026-04-26 10:45 | 56.91877 | 60.25462 | 4261 ft | 283 kts | 97° |
| 2026-04-26 10:45 | 56.91639 | 60.28976 | 4238 ft | 270 kts | 99° |
| 2026-04-26 10:46 | 56.91324 | 60.32446 | 4021 ft | 278 kts | 96° |
| 2026-04-26 10:46 | 56.91049 | 60.35922 | 3937 ft | 274 kts | 99° |
| 2026-04-26 10:46 | 56.90762 | 60.39389 | 3814 ft | 272 kts | 96° |
| 2026-04-26 10:46 | 56.90492 | 60.42802 | 3808 ft | 269 kts | 100° |
| 2026-04-26 10:47 | 56.90207 | 60.46189 | 3880 ft | 272 kts | 98° |
| 2026-04-26 10:47 | 56.89919 | 60.49636 | 3893 ft | 271 kts | 99° |
| 2026-04-26 10:47 | 56.89622 | 60.53056 | 3785 ft | 271 kts | 101° |
| 2026-04-26 10:47 | 56.89356 | 60.56459 | 3871 ft | 268 kts | 97° |
| 2026-04-26 10:48 | 56.89040 | 60.59843 | 3938 ft | 272 kts | 99° |
| 2026-04-26 10:48 | 56.88792 | 60.63316 | 3794 ft | 273 kts | 99° |
| 2026-04-26 10:48 | 56.88474 | 60.66679 | 3889 ft | 270 kts | 98° |
| 2026-04-26 10:48 | 56.88179 | 60.70135 | 3791 ft | 270 kts | 101° |
| 2026-04-26 10:49 | 56.87928 | 60.73553 | 3898 ft | 265 kts | 101° |
| 2026-04-26 10:49 | 56.87616 | 60.76784 | 3742 ft | 254 kts | 97° |
| 2026-04-26 10:49 | 56.87354 | 60.79883 | 3728 ft | 237 kts | 101° |
| 2026-04-26 10:49 | 56.87127 | 60.82838 | 3498 ft | 229 kts | 101° |
| 2026-04-26 10:50 | 56.86868 | 60.85695 | 3207 ft | 228 kts | 101° |
| 2026-04-26 10:50 | 56.86691 | 60.87643 | 2987 ft | 232 kts | 101° |
| 2026-04-26 10:50 | 56.86357 | 60.91431 | 2831 ft | 224 kts | 99° |
| 2026-04-26 10:50 | 56.86128 | 60.94296 | 2679 ft | 227 kts | 100° |
| 2026-04-26 10:51 | 56.85854 | 60.97138 | 2510 ft | 228 kts | 100° |
| 2026-04-26 10:51 | 56.85375 | 61.02780 | 2535 ft | 222 kts | 102° |
| 2026-04-26 10:51 | 56.85137 | 61.05593 | 2568 ft | 221 kts | 101° |
| 2026-04-26 10:52 | 56.84676 | 61.08289 | 2452 ft | 222 kts | 126° |
| 2026-04-26 10:52 | 56.83625 | 61.10223 | 2236 ft | 208 kts | 150° |
| 2026-04-26 10:52 | 56.82442 | 61.11734 | 2274 ft | 205 kts | 150° |
| 2026-04-26 10:52 | 56.81134 | 61.12608 | 2213 ft | 201 kts | 179° |
| 2026-04-26 10:53 | 56.79753 | 61.12533 | 2262 ft | 195 kts | 200° |
| 2026-04-26 10:53 | 56.78583 | 61.11362 | 2123 ft | 189 kts | 223° |
| 2026-04-26 10:53 | 56.77571 | 61.09815 | 2033 ft | 185 kts | 223° |
| 2026-04-26 10:54 | 56.75552 | 61.06811 | 2033 ft | 191 kts | 225° |
| 2026-04-26 10:54 | 56.74558 | 61.05271 | 1971 ft | 188 kts | 226° |
| 2026-04-26 10:54 | 56.73586 | 61.03675 | 2040 ft | 188 kts | 228° |
| 2026-04-26 10:54 | 56.72908 | 61.01782 | 2268 ft | 166 kts | 263° |
| 2026-04-26 10:55 | 56.73003 | 60.99958 | 2233 ft | 136 kts | 285° |
| 2026-04-26 10:55 | 56.73200 | 60.98360 | 2069 ft | 122 kts | 280° |
| 2026-04-26 10:55 | 56.73327 | 60.96718 | 2006 ft | 136 kts | 276° |
| 2026-04-26 10:55 | 56.73406 | 60.95540 | 1969 ft | 139 kts | 274° |
| 2026-04-26 10:56 | 56.73534 | 60.93213 | 1805 ft | 142 kts | 272° |
| 2026-04-26 10:56 | 56.73628 | 60.91415 | 1767 ft | 139 kts | 281° |
| 2026-04-26 10:56 | 56.73725 | 60.89625 | 1586 ft | 143 kts | 272° |
| 2026-04-26 10:56 | 56.73792 | 60.87859 | 1350 ft | 130 kts | 277° |
| 2026-04-26 10:57 | 56.73878 | 60.86251 | 1112 ft | 127 kts | 271° |
| 2026-04-26 10:57 | 56.73950 | 60.84665 | 980 ft | 123 kts | 271° |
| 2026-04-26 10:57 | 56.74034 | 60.83105 | 830 ft | 124 kts | 272° |
| 2026-04-26 10:57 | 56.74078 | 60.81563 | 789 ft | 114 kts | 272° |
| 2026-04-26 10:58 | 56.74144 | 60.80072 | 777 ft | 136 kts | 274° |
| 2026-04-26 10:58 | 56.74195 | 60.78843 | 777 ft | 39 kts | 273° |
| 2026-04-26 10:58 | 56.74210 | 60.78413 | 777 ft | 31 kts | 275° |
| 2026-04-26 10:58 | 56.74231 | 60.78110 | 777 ft | 17 kts | 297° |